createdAt,value
2017-07-11T00:00:15.263Z,0
2017-07-11T00:01:16.916Z,0
2017-07-11T00:02:18.577Z,0
2017-07-11T00:03:20.255Z,0
2017-07-11T00:04:21.994Z,0
2017-07-11T00:05:24.634Z,0
2017-07-11T00:06:26.916Z,0
2017-07-11T00:07:28.527Z,0
2017-07-11T00:08:30.167Z,0
2017-07-11T00:09:31.943Z,0
2017-07-11T00:10:33.840Z,0
2017-07-11T00:11:35.619Z,0
2017-07-11T00:12:37.621Z,0
2017-07-11T00:13:39.340Z,0
2017-07-11T00:14:41.144Z,0
2017-07-11T00:15:42.771Z,0
2017-07-11T00:16:44.413Z,0
2017-07-11T00:17:46.719Z,0
2017-07-11T00:18:48.393Z,0
2017-07-11T00:19:50.058Z,0
2017-07-11T00:20:51.864Z,0
2017-07-11T00:21:53.522Z,0
2017-07-11T00:22:55.258Z,0
2017-07-11T00:23:57.047Z,0
2017-07-11T00:24:58.864Z,0
2017-07-11T00:26:00.474Z,0
2017-07-11T00:27:02.358Z,0
2017-07-11T00:28:04.086Z,0
2017-07-11T00:29:05.804Z,0
2017-07-11T00:30:07.438Z,0
2017-07-11T00:31:09.080Z,0
2017-07-11T00:32:10.819Z,0
2017-07-11T00:33:12.561Z,0
2017-07-11T00:34:14.259Z,0
2017-07-11T00:35:15.992Z,0
2017-07-11T00:36:17.691Z,0
2017-07-11T00:37:19.437Z,0
2017-07-11T00:38:21.183Z,0
2017-07-11T00:39:22.820Z,0
2017-07-11T00:40:24.592Z,0
2017-07-11T00:41:26.505Z,0
2017-07-11T00:42:28.441Z,0
2017-07-11T00:43:30.159Z,0
2017-07-11T00:44:31.906Z,0
2017-07-11T00:45:33.597Z,0
2017-07-11T00:46:35.231Z,0
2017-07-11T00:47:36.871Z,0
2017-07-11T00:48:38.527Z,0
2017-07-11T00:49:40.162Z,0
2017-07-11T00:50:41.868Z,0
2017-07-11T00:51:43.532Z,0
2017-07-11T00:52:45.187Z,0
2017-07-11T00:53:46.951Z,0
2017-07-11T00:54:48.640Z,0
2017-07-11T00:55:50.730Z,0
2017-07-11T00:56:52.242Z,0
2017-07-11T00:57:53.877Z,0
2017-07-11T00:58:55.649Z,0
2017-07-11T00:59:58.105Z,0
2017-07-11T01:01:00.479Z,0
2017-07-11T01:02:02.163Z,0
2017-07-11T01:03:03.795Z,0
2017-07-11T01:04:05.424Z,0
2017-07-11T01:05:07.110Z,0
2017-07-11T01:06:08.750Z,0
2017-07-11T01:07:10.438Z,0
2017-07-11T01:08:12.136Z,0
2017-07-11T01:09:13.779Z,0
2017-07-11T01:10:15.428Z,0
2017-07-11T01:11:17.076Z,0
2017-07-11T01:12:18.996Z,0
2017-07-11T01:13:20.644Z,0
2017-07-11T01:14:22.347Z,0
2017-07-11T01:15:24.708Z,0
2017-07-11T01:16:26.519Z,0
2017-07-11T01:17:28.184Z,0
2017-07-11T01:18:29.885Z,0
2017-07-11T01:19:31.551Z,0
2017-07-11T01:20:33.197Z,0
2017-07-11T01:21:34.850Z,0
2017-07-11T01:22:36.557Z,0
2017-07-11T01:23:38.247Z,0
2017-07-11T01:24:39.887Z,0
2017-07-11T01:25:41.541Z,0
2017-07-11T01:26:43.187Z,0
2017-07-11T01:27:44.811Z,0
2017-07-11T01:28:46.591Z,0
2017-07-11T01:29:48.379Z,0
2017-07-11T01:30:49.969Z,0
2017-07-11T01:31:51.750Z,0
2017-07-11T01:32:53.667Z,0
2017-07-11T01:33:55.331Z,0
2017-07-11T01:34:57.220Z,0
2017-07-11T01:35:58.851Z,0
2017-07-11T01:37:00.489Z,0
2017-07-11T01:38:02.208Z,0
2017-07-11T01:39:03.815Z,0
2017-07-11T01:40:05.467Z,0
2017-07-11T01:41:07.170Z,0
2017-07-11T01:42:08.826Z,0
2017-07-11T01:43:10.466Z,0
2017-07-11T01:44:12.210Z,0
2017-07-11T01:45:13.867Z,0
2017-07-11T01:46:15.500Z,0
2017-07-11T01:47:17.177Z,0
2017-07-11T01:48:18.833Z,0
2017-07-11T01:49:20.461Z,0
2017-07-11T01:50:22.166Z,0
2017-07-11T01:51:23.836Z,0
2017-07-11T01:52:25.467Z,0
2017-07-11T01:53:27.567Z,0
2017-07-11T01:54:29.403Z,0
2017-07-11T01:55:31.111Z,0
2017-07-11T01:56:32.750Z,0
2017-07-11T01:57:34.391Z,0
2017-07-11T01:58:36.079Z,0
2017-07-11T01:59:37.718Z,0
2017-07-11T02:00:40.306Z,0
2017-07-11T02:01:42.009Z,0
2017-07-11T02:02:43.853Z,0
2017-07-11T02:03:45.479Z,0
2017-07-11T02:04:47.296Z,0
2017-07-11T02:05:49.060Z,0
2017-07-11T02:06:50.737Z,0
2017-07-11T02:07:52.369Z,0
2017-07-11T02:08:54.092Z,0
2017-07-11T02:09:55.757Z,0
2017-07-11T02:10:57.438Z,0
2017-07-11T02:11:59.178Z,0
2017-07-11T02:13:00.816Z,0
2017-07-11T02:14:02.445Z,0
2017-07-11T02:15:04.155Z,0
2017-07-11T02:16:05.811Z,0
2017-07-11T02:17:07.480Z,0
2017-07-11T02:18:09.223Z,0
2017-07-11T02:19:10.853Z,0
2017-07-11T02:20:12.492Z,0
2017-07-11T02:21:14.151Z,0
2017-07-11T02:22:15.845Z,0
2017-07-11T02:23:17.481Z,0
2017-07-11T02:24:19.227Z,0
2017-07-11T02:25:20.858Z,0
2017-07-11T02:26:22.638Z,0
2017-07-11T02:27:24.405Z,0
2017-07-11T02:28:26.045Z,0
2017-07-11T02:29:27.722Z,0
2017-07-11T02:30:29.373Z,0
2017-07-11T02:31:31.010Z,0
2017-07-11T02:32:32.639Z,0
2017-07-11T02:33:34.396Z,0
2017-07-11T02:34:36.025Z,0
2017-07-11T02:35:37.673Z,0
2017-07-11T02:36:39.798Z,0
2017-07-11T02:37:42.245Z,0
2017-07-11T02:38:44.456Z,0
2017-07-11T02:39:46.296Z,0
2017-07-11T02:40:48.596Z,0
2017-07-11T02:41:50.171Z,0
2017-07-11T02:42:51.851Z,0
2017-07-11T02:43:53.546Z,0
2017-07-11T02:44:55.226Z,0
2017-07-11T02:45:56.854Z,0
2017-07-11T02:46:58.951Z,0
2017-07-11T02:48:00.578Z,0
2017-07-11T02:49:02.279Z,0
2017-07-11T02:50:04.101Z,0
2017-07-11T02:51:05.989Z,0
2017-07-11T02:52:07.700Z,0
2017-07-11T02:53:09.492Z,4
2017-07-11T02:54:11.126Z,4
2017-07-11T02:55:12.793Z,4
2017-07-11T02:56:14.538Z,0
2017-07-11T02:57:16.325Z,4
2017-07-11T02:58:17.946Z,4
2017-07-11T02:59:19.741Z,8
2017-07-11T03:00:21.399Z,4
2017-07-11T03:01:23.030Z,8
2017-07-11T03:02:24.788Z,8
2017-07-11T03:03:26.482Z,8
2017-07-11T03:04:28.134Z,8
2017-07-11T03:05:29.806Z,8
2017-07-11T03:06:31.680Z,8
2017-07-11T03:07:33.329Z,12
2017-07-11T03:08:35.098Z,12
2017-07-11T03:09:36.762Z,16
2017-07-11T03:10:38.420Z,20
2017-07-11T03:11:40.131Z,24
2017-07-11T03:12:41.814Z,24
2017-07-11T03:13:43.459Z,28
2017-07-11T03:14:45.113Z,28
2017-07-11T03:15:46.773Z,36
2017-07-11T03:16:48.462Z,36
2017-07-11T03:17:50.103Z,40
2017-07-11T03:18:51.751Z,44
2017-07-11T03:19:53.391Z,44
2017-07-11T03:20:55.199Z,52
2017-07-11T03:21:56.838Z,60
2017-07-11T03:22:58.471Z,64
2017-07-11T03:24:00.145Z,68
2017-07-11T03:25:02.302Z,76
2017-07-11T03:26:04.677Z,80
2017-07-11T03:27:06.336Z,88
2017-07-11T03:28:07.983Z,92
2017-07-11T03:29:09.669Z,100
2017-07-11T03:30:12.109Z,108
2017-07-11T03:31:13.869Z,116
2017-07-11T03:32:15.500Z,120
2017-07-11T03:33:17.176Z,132
2017-07-11T03:34:18.890Z,140
2017-07-11T03:35:20.549Z,148
2017-07-11T03:36:22.226Z,160
2017-07-11T03:37:23.985Z,172
2017-07-11T03:38:25.592Z,184
2017-07-11T03:39:27.229Z,192
2017-07-11T03:40:28.896Z,204
2017-07-11T03:41:30.561Z,216
2017-07-11T03:42:32.270Z,228
2017-07-11T03:43:34.006Z,240
2017-07-11T03:44:35.627Z,248
2017-07-11T03:45:37.283Z,260
2017-07-11T03:46:39.044Z,268
2017-07-11T03:47:40.690Z,276
2017-07-11T03:48:42.346Z,284
2017-07-11T03:49:44.111Z,296
2017-07-11T03:50:45.790Z,304
2017-07-11T03:51:47.442Z,312
2017-07-11T03:52:49.114Z,320
2017-07-11T03:53:50.767Z,328
2017-07-11T03:54:52.433Z,336
2017-07-11T03:55:54.287Z,352
2017-07-11T03:56:55.934Z,372
2017-07-11T03:57:57.574Z,388
2017-07-11T03:58:59.408Z,404
2017-07-11T04:00:01.048Z,424
2017-07-11T04:01:02.711Z,440
2017-07-11T04:02:04.466Z,452
2017-07-11T04:03:06.098Z,456
2017-07-11T04:04:07.765Z,460
2017-07-11T04:05:09.582Z,472
2017-07-11T04:06:11.237Z,484
2017-07-11T04:07:12.926Z,492
2017-07-11T04:08:15.257Z,504
2017-07-11T04:09:16.889Z,520
2017-07-11T04:10:18.540Z,536
2017-07-11T04:11:20.196Z,552
2017-07-11T04:12:21.826Z,572
2017-07-11T04:13:23.514Z,588
2017-07-11T04:14:25.180Z,600
2017-07-11T04:15:26.912Z,616
2017-07-11T04:16:28.562Z,628
2017-07-11T04:17:30.234Z,632
2017-07-11T04:18:31.963Z,640
2017-07-11T04:19:33.555Z,652
2017-07-11T04:20:35.194Z,668
2017-07-11T04:21:36.860Z,684
2017-07-11T04:22:38.548Z,696
2017-07-11T04:23:40.230Z,712
2017-07-11T04:24:41.866Z,720
2017-07-11T04:25:43.517Z,732
2017-07-11T04:26:45.167Z,748
2017-07-11T04:27:46.817Z,760
2017-07-11T04:28:48.671Z,780
2017-07-11T04:29:50.340Z,792
2017-07-11T04:30:51.988Z,804
2017-07-11T04:31:53.759Z,816
2017-07-11T04:32:55.348Z,828
2017-07-11T04:33:57.005Z,836
2017-07-11T04:34:59.411Z,848
2017-07-11T04:36:01.050Z,860
2017-07-11T04:37:02.685Z,872
2017-07-11T04:38:04.409Z,880
2017-07-11T04:39:06.071Z,888
2017-07-11T04:40:07.693Z,900
2017-07-11T04:41:09.480Z,912
2017-07-11T04:42:11.131Z,920
2017-07-11T04:43:12.768Z,928
2017-07-11T04:44:14.457Z,932
2017-07-11T04:45:16.108Z,944
2017-07-11T04:46:17.759Z,952
2017-07-11T04:47:19.497Z,960
2017-07-11T04:48:21.172Z,960
2017-07-11T04:49:22.829Z,972
2017-07-11T04:50:24.566Z,984
2017-07-11T04:51:26.218Z,996
2017-07-11T04:52:27.860Z,1008
2017-07-11T04:53:29.623Z,1020
2017-07-11T04:54:31.255Z,1044
2017-07-11T04:55:32.895Z,1060
2017-07-11T04:56:34.656Z,1060
2017-07-11T04:57:36.298Z,1064
2017-07-11T04:58:37.976Z,1060
2017-07-11T04:59:39.763Z,1056
2017-07-11T05:00:41.446Z,1064
2017-07-11T05:01:43.231Z,1068
2017-07-11T05:02:44.978Z,1096
2017-07-11T05:03:46.668Z,1036
2017-07-11T05:04:48.312Z,1208
2017-07-11T05:05:50.037Z,1280
2017-07-11T05:06:51.701Z,1376
2017-07-11T05:07:53.357Z,1500
2017-07-11T05:08:55.053Z,1488
2017-07-11T05:09:56.690Z,1364
2017-07-11T05:10:58.359Z,1260
2017-07-11T05:11:59.971Z,1192
2017-07-11T05:13:01.610Z,1164
2017-07-11T05:14:03.270Z,1076
2017-07-11T05:15:04.982Z,1164
2017-07-11T05:16:06.733Z,1032
2017-07-11T05:17:08.379Z,1048
2017-07-11T05:18:10.082Z,1088
2017-07-11T05:19:11.749Z,1132
2017-07-11T05:20:13.407Z,1292
2017-07-11T05:21:15.105Z,1328
2017-07-11T05:22:16.749Z,1344
2017-07-11T05:23:18.393Z,1376
2017-07-11T05:24:20.082Z,1420
2017-07-11T05:25:21.751Z,1472
2017-07-11T05:26:24.429Z,1456
2017-07-11T05:27:26.107Z,1580
2017-07-11T05:28:27.770Z,1636
2017-07-11T05:29:29.550Z,1632
2017-07-11T05:30:31.189Z,1704
2017-07-11T05:31:32.829Z,1804
2017-07-11T05:32:34.508Z,1860
2017-07-11T05:33:36.156Z,1868
2017-07-11T05:34:37.788Z,1804
2017-07-11T05:35:39.466Z,1708
2017-07-11T05:36:41.106Z,1776
2017-07-11T05:37:42.774Z,1760
2017-07-11T05:38:44.534Z,1656
2017-07-11T05:39:46.215Z,1640
2017-07-11T05:40:47.852Z,1748
2017-07-11T05:41:49.613Z,1764
2017-07-11T05:42:51.259Z,1740
2017-07-11T05:43:52.915Z,1716
2017-07-11T05:44:54.580Z,1556
2017-07-11T05:45:56.470Z,1544
2017-07-11T05:46:57.846Z,1588
2017-07-11T05:47:59.544Z,1672
2017-07-11T05:49:01.181Z,1796
2017-07-11T05:50:02.821Z,1872
2017-07-11T05:51:04.513Z,1836
2017-07-11T05:52:06.162Z,1768
2017-07-11T05:53:07.832Z,1784
2017-07-11T05:54:09.487Z,1784
2017-07-11T05:55:11.149Z,1680
2017-07-11T05:56:12.841Z,1680
2017-07-11T05:57:14.508Z,1924
2017-07-11T05:58:16.161Z,2000
2017-07-11T05:59:17.799Z,2088
2017-07-11T06:00:19.452Z,2076
2017-07-11T06:01:21.141Z,2452
2017-07-11T06:02:22.789Z,2536
2017-07-11T06:03:24.492Z,2312
2017-07-11T06:04:26.201Z,2416
2017-07-11T06:05:27.835Z,2340
2017-07-11T06:06:29.577Z,2168
2017-07-11T06:07:31.272Z,2320
2017-07-11T06:08:32.918Z,2272
2017-07-11T06:09:34.720Z,2072
2017-07-11T06:10:36.417Z,2276
2017-07-11T06:11:38.097Z,2112
2017-07-11T06:12:39.856Z,1864
2017-07-11T06:13:41.504Z,1956
2017-07-11T06:14:43.188Z,1672
2017-07-11T06:15:44.903Z,1452
2017-07-11T06:16:46.767Z,1292
2017-07-11T06:17:48.484Z,1572
2017-07-11T06:18:50.165Z,1768
2017-07-11T06:19:51.799Z,1568
2017-07-11T06:20:53.462Z,1148
2017-07-11T06:21:55.158Z,1012
2017-07-11T06:22:56.824Z,936
2017-07-11T06:23:58.520Z,1004
2017-07-11T06:25:00.263Z,1052
2017-07-11T06:26:01.980Z,1076
2017-07-11T06:27:03.705Z,1092
2017-07-11T06:28:05.460Z,1116
2017-07-11T06:29:07.209Z,1248
2017-07-11T06:30:08.931Z,1308
2017-07-11T06:31:10.620Z,1500
2017-07-11T06:32:12.269Z,1732
2017-07-11T06:33:13.985Z,1892
2017-07-11T06:34:15.716Z,1628
2017-07-11T06:35:17.345Z,1520
2017-07-11T06:36:19.121Z,1444
2017-07-11T06:37:20.848Z,1516
2017-07-11T06:38:22.510Z,1348
2017-07-11T06:39:24.420Z,1200
2017-07-11T06:40:26.121Z,1216
2017-07-11T06:41:27.850Z,1292
2017-07-11T06:42:29.716Z,1344
2017-07-11T06:43:31.405Z,1516
2017-07-11T06:44:33.055Z,1472
2017-07-11T06:45:34.727Z,1500
2017-07-11T06:46:36.446Z,1404
2017-07-11T06:47:38.118Z,1468
2017-07-11T06:48:39.825Z,1496
2017-07-11T06:49:41.563Z,1600
2017-07-11T06:50:43.221Z,1816
2017-07-11T06:51:45.075Z,1668
2017-07-11T06:52:46.762Z,1672
2017-07-11T06:53:48.417Z,1740
2017-07-11T06:54:50.123Z,1864
2017-07-11T06:55:51.832Z,1992
2017-07-11T06:56:53.638Z,2036
2017-07-11T06:57:55.278Z,1944
2017-07-11T06:58:56.930Z,1896
2017-07-11T06:59:58.802Z,1908
2017-07-11T07:01:00.545Z,1936
2017-07-11T07:02:02.184Z,1744
2017-07-11T07:03:03.894Z,1656
2017-07-11T07:04:05.555Z,1740
2017-07-11T07:05:07.200Z,1836
2017-07-11T07:06:08.889Z,2240
2017-07-11T07:07:10.600Z,2408
2017-07-11T07:08:12.386Z,2432
2017-07-11T07:09:14.108Z,2540
2017-07-11T07:10:15.753Z,2596
2017-07-11T07:11:17.498Z,2304
2017-07-11T07:12:19.256Z,2060
2017-07-11T07:13:21.832Z,2000
2017-07-11T07:14:23.619Z,1916
2017-07-11T07:15:25.270Z,2028
2017-07-11T07:16:26.854Z,2224
2017-07-11T07:17:28.598Z,2416
2017-07-11T07:18:30.219Z,2176
2017-07-11T07:19:31.889Z,2444
2017-07-11T07:20:33.615Z,2752
2017-07-11T07:21:35.410Z,2628
2017-07-11T07:22:37.073Z,3036
2017-07-11T07:23:38.856Z,2996
2017-07-11T07:24:40.515Z,3052
2017-07-11T07:25:42.178Z,2992
2017-07-11T07:26:43.997Z,2688
2017-07-11T07:27:45.697Z,2504
2017-07-11T07:28:47.405Z,2680
2017-07-11T07:29:49.122Z,2200
2017-07-11T07:30:50.814Z,2060
2017-07-11T07:31:52.542Z,2292
2017-07-11T07:32:54.318Z,1908
2017-07-11T07:33:56.034Z,1580
2017-07-11T07:34:57.858Z,1668
2017-07-11T07:35:59.592Z,1476
2017-07-11T07:37:01.353Z,1468
2017-07-11T07:38:03.059Z,1748
2017-07-11T07:39:04.879Z,1736
2017-07-11T07:40:06.716Z,1544
2017-07-11T07:41:08.345Z,1688
2017-07-11T07:42:10.075Z,1896
2017-07-11T07:43:11.744Z,2132
2017-07-11T07:44:13.436Z,2684
2017-07-11T07:45:16.647Z,3332
2017-07-11T07:46:18.443Z,3340
2017-07-11T07:47:20.144Z,2884
2017-07-11T07:48:21.844Z,3132
2017-07-11T07:49:23.534Z,2888
2017-07-11T07:50:25.347Z,2732
2017-07-11T07:51:27.054Z,2428
2017-07-11T07:52:28.838Z,2364
2017-07-11T07:53:30.572Z,2820
2017-07-11T07:54:32.227Z,2424
2017-07-11T07:55:33.908Z,1724
2017-07-11T07:56:35.577Z,1696
2017-07-11T07:57:37.260Z,1868
2017-07-11T07:58:39.090Z,1968
2017-07-11T07:59:40.808Z,1772
2017-07-11T08:00:42.514Z,1600
2017-07-11T08:01:44.416Z,1656
2017-07-11T08:02:46.089Z,2348
2017-07-11T08:03:47.779Z,2768
2017-07-11T08:04:49.625Z,2220
2017-07-11T08:05:51.358Z,2228
2017-07-11T08:06:53.014Z,2744
2017-07-11T08:07:54.781Z,2380
2017-07-11T08:08:56.448Z,2084
2017-07-11T08:09:58.151Z,2396
2017-07-11T08:10:59.906Z,2324
2017-07-11T08:12:01.564Z,1924
2017-07-11T08:13:03.276Z,1976
2017-07-11T08:14:05.078Z,1936
2017-07-11T08:15:06.774Z,1940
2017-07-11T08:16:08.546Z,2324
2017-07-11T08:17:10.328Z,2492
2017-07-11T08:18:12.052Z,2100
2017-07-11T08:19:13.739Z,1752
2017-07-11T08:20:15.476Z,1780
2017-07-11T08:21:17.133Z,2044
2017-07-11T08:22:18.893Z,2736
2017-07-11T08:23:20.706Z,3160
2017-07-11T08:24:22.588Z,3172
2017-07-11T08:25:24.531Z,2848
2017-07-11T08:26:26.244Z,2644
2017-07-11T08:27:28.149Z,2288
2017-07-11T08:28:29.832Z,2192
2017-07-11T08:29:31.526Z,2420
2017-07-11T08:30:33.232Z,2504
2017-07-11T08:31:35.002Z,2556
2017-07-11T08:32:36.786Z,2884
2017-07-11T08:33:38.504Z,2720
2017-07-11T08:34:40.311Z,2856
2017-07-11T08:35:42.020Z,3148
2017-07-11T08:36:43.860Z,2916
2017-07-11T08:37:45.622Z,2992
2017-07-11T08:38:47.289Z,2808
2017-07-11T08:39:49.076Z,2864
2017-07-11T08:40:50.812Z,3596
2017-07-11T08:41:52.542Z,3900
2017-07-11T08:42:54.570Z,3172
2017-07-11T08:43:56.241Z,3056
2017-07-11T08:44:57.946Z,2992
2017-07-11T08:45:59.656Z,3132
2017-07-11T08:47:01.333Z,3296
2017-07-11T08:48:03.040Z,3592
2017-07-11T08:49:04.838Z,3476
2017-07-11T08:50:06.618Z,4312
2017-07-11T08:51:08.331Z,4200
2017-07-11T08:52:10.137Z,3852
2017-07-11T08:53:11.856Z,4292
2017-07-11T08:54:13.583Z,4008
2017-07-11T08:55:15.373Z,3488
2017-07-11T08:56:17.066Z,3652
2017-07-11T08:57:18.822Z,3944
2017-07-11T08:58:20.531Z,3640
2017-07-11T08:59:22.208Z,2932
2017-07-11T09:00:24.054Z,3376
2017-07-11T09:01:25.815Z,3976
2017-07-11T09:02:27.610Z,3200
2017-07-11T09:03:29.504Z,3308
2017-07-11T09:04:31.225Z,3544
2017-07-11T09:05:33.025Z,4872
2017-07-11T09:06:34.816Z,3920
2017-07-11T09:07:36.538Z,3064
2017-07-11T09:08:38.245Z,2444
2017-07-11T09:09:40.177Z,2204
2017-07-11T09:10:41.884Z,2124
2017-07-11T09:11:43.622Z,2164
2017-07-11T09:12:45.291Z,2124
2017-07-11T09:13:47.052Z,2256
2017-07-11T09:14:48.956Z,3100
2017-07-11T09:15:50.679Z,3600
2017-07-11T09:16:52.461Z,4084
2017-07-11T09:17:54.290Z,4632
2017-07-11T09:18:56.125Z,4096
2017-07-11T09:19:57.808Z,3688
2017-07-11T09:20:59.708Z,3708
2017-07-11T09:22:01.338Z,3936
2017-07-11T09:23:03.035Z,4424
2017-07-11T09:24:04.808Z,4632
2017-07-11T09:25:06.508Z,3752
2017-07-11T09:26:08.193Z,3176
2017-07-11T09:27:10.090Z,3088
2017-07-11T09:28:11.860Z,3528
2017-07-11T09:29:13.636Z,3692
2017-07-11T09:30:15.333Z,4104
2017-07-11T09:31:17.132Z,3588
2017-07-11T09:32:18.911Z,3640
2017-07-11T09:33:20.778Z,3368
2017-07-11T09:34:22.468Z,3784
2017-07-11T09:35:24.215Z,3144
2017-07-11T09:36:25.905Z,2444
2017-07-11T09:37:27.591Z,2560
2017-07-11T09:38:29.420Z,3208
2017-07-11T09:39:31.060Z,3092
2017-07-11T09:40:32.833Z,2984
2017-07-11T09:41:34.781Z,2840
2017-07-11T09:42:36.449Z,3416
2017-07-11T09:43:38.172Z,4752
2017-07-11T09:44:39.933Z,3748
2017-07-11T09:45:42.568Z,3128
2017-07-11T09:46:44.406Z,4244
2017-07-11T09:47:46.109Z,4996
2017-07-11T09:48:47.802Z,5340
2017-07-11T09:49:49.599Z,4672
2017-07-11T09:50:51.295Z,3364
2017-07-11T09:51:53.009Z,3864
2017-07-11T09:52:54.819Z,4924
2017-07-11T09:53:56.487Z,4892
2017-07-11T09:54:58.244Z,5152
2017-07-11T09:55:59.986Z,3764
2017-07-11T09:57:01.720Z,4308
2017-07-11T09:58:03.384Z,4448
2017-07-11T09:59:05.127Z,3140
2017-07-11T10:00:06.845Z,2384
2017-07-11T10:01:08.765Z,2624
2017-07-11T10:02:10.516Z,2996
2017-07-11T10:03:12.240Z,3600
2017-07-11T10:04:13.973Z,5780
2017-07-11T10:05:15.738Z,7408
2017-07-11T10:06:17.405Z,6148
2017-07-11T10:07:19.311Z,4684
2017-07-11T10:08:21.091Z,5232
2017-07-11T10:09:22.938Z,5136
2017-07-11T10:10:24.690Z,4764
2017-07-11T10:11:26.390Z,4660
2017-07-11T10:12:28.089Z,4372
2017-07-11T10:13:30.552Z,4252
2017-07-11T10:14:32.283Z,5600
2017-07-11T10:15:33.996Z,6700
2017-07-11T10:16:35.735Z,7604
2017-07-11T10:17:37.525Z,7820
2017-07-11T10:18:39.245Z,8004
2017-07-11T10:19:40.899Z,7164
2017-07-11T10:20:42.563Z,5372
2017-07-11T10:21:44.408Z,4744
2017-07-11T10:22:46.058Z,4564
2017-07-11T10:23:47.750Z,5560
2017-07-11T10:24:49.656Z,6516
2017-07-11T10:25:51.338Z,6596
2017-07-11T10:26:53.031Z,5728
2017-07-11T10:27:54.771Z,6024
2017-07-11T10:28:56.664Z,7036
2017-07-11T10:29:58.335Z,6648
2017-07-11T10:31:00.083Z,5844
2017-07-11T10:32:01.780Z,6840
2017-07-11T10:33:03.483Z,6900
2017-07-11T10:34:05.234Z,6600
2017-07-11T10:35:06.921Z,6280
2017-07-11T10:36:08.587Z,6160
2017-07-11T10:37:10.250Z,5824
2017-07-11T10:38:11.915Z,5388
2017-07-11T10:39:13.677Z,5008
2017-07-11T10:40:15.392Z,4940
2017-07-11T10:41:17.071Z,5600
2017-07-11T10:42:18.781Z,5656
2017-07-11T10:43:20.481Z,6120
2017-07-11T10:44:22.257Z,5484
2017-07-11T10:45:24.015Z,6356
2017-07-11T10:46:25.717Z,5996
2017-07-11T10:47:27.370Z,5480
2017-07-11T10:48:29.042Z,7844
2017-07-11T10:49:30.722Z,7780
2017-07-11T10:50:32.388Z,6932
2017-07-11T10:51:34.207Z,8196
2017-07-11T10:52:35.974Z,8248
2017-07-11T10:53:37.635Z,8776
2017-07-11T10:54:39.436Z,7916
2017-07-11T10:55:41.076Z,7284
2017-07-11T10:56:42.720Z,7528
2017-07-11T10:57:44.454Z,7820
2017-07-11T10:58:46.125Z,6596
2017-07-11T10:59:47.837Z,6476
2017-07-11T11:00:49.561Z,7004
2017-07-11T11:01:51.212Z,7272
2017-07-11T11:02:52.848Z,7556
2017-07-11T11:03:54.567Z,6776
2017-07-11T11:04:56.212Z,6824
2017-07-11T11:05:57.957Z,8016
2017-07-11T11:06:59.713Z,8448
2017-07-11T11:08:01.440Z,7444
2017-07-11T11:09:03.086Z,8012
2017-07-11T11:10:04.852Z,7632
2017-07-11T11:11:06.502Z,6984
2017-07-11T11:12:08.127Z,6976
2017-07-11T11:13:11.087Z,8004
2017-07-11T11:14:13.600Z,6264
2017-07-11T11:15:15.640Z,6220
2017-07-11T11:16:17.721Z,8704
2017-07-11T11:17:19.770Z,9148
2017-07-11T11:18:21.662Z,8272
2017-07-11T11:19:23.377Z,9428
2017-07-11T11:20:25.110Z,7932
2017-07-11T11:21:26.936Z,8744
2017-07-11T11:22:28.625Z,7916
2017-07-11T11:23:30.411Z,8780
2017-07-11T11:24:33.194Z,7832
2017-07-11T11:25:34.971Z,5716
2017-07-11T11:26:36.621Z,4964
2017-07-11T11:27:38.276Z,5932
2017-07-11T11:28:39.979Z,7100
2017-07-11T11:29:41.743Z,7296
2017-07-11T11:30:43.736Z,7772
2017-07-11T11:31:45.381Z,6956
2017-07-11T11:32:47.039Z,7348
2017-07-11T11:33:48.790Z,8144
2017-07-11T11:34:50.437Z,8348
2017-07-11T11:35:52.078Z,8260
2017-07-11T11:36:53.873Z,8232
2017-07-11T11:37:55.591Z,8712
2017-07-11T11:38:57.313Z,10556
2017-07-11T11:39:59.101Z,7696
2017-07-11T11:41:00.758Z,8012
2017-07-11T11:42:02.463Z,8604
2017-07-11T11:43:04.263Z,10244
2017-07-11T11:44:05.949Z,8480
2017-07-11T11:45:07.708Z,7664
2017-07-11T11:46:09.534Z,8668
2017-07-11T11:47:11.168Z,9172
2017-07-11T11:48:12.990Z,8960
2017-07-11T11:49:14.739Z,8248
2017-07-11T11:50:16.450Z,8324
2017-07-11T11:51:18.278Z,8860
2017-07-11T11:52:20.207Z,9484
2017-07-11T11:53:21.940Z,9136
2017-07-11T11:54:23.720Z,8988
2017-07-11T11:55:25.531Z,10088
2017-07-11T11:56:27.184Z,10308
2017-07-11T11:57:29.014Z,10580
2017-07-11T11:58:30.815Z,10508
2017-07-11T11:59:32.587Z,10336
2017-07-11T12:00:34.450Z,10692
2017-07-11T12:01:36.218Z,9452
2017-07-11T12:02:38.001Z,9560
2017-07-11T12:03:39.871Z,9284
2017-07-11T12:04:41.711Z,8700
2017-07-11T12:05:43.444Z,8716
2017-07-11T12:06:45.262Z,9056
2017-07-11T12:07:46.948Z,9072
2017-07-11T12:08:48.624Z,9672
2017-07-11T12:09:50.388Z,9132
2017-07-11T12:10:52.070Z,10100
2017-07-11T12:11:53.866Z,9688
2017-07-11T12:12:55.707Z,9152
2017-07-11T12:13:57.450Z,9768
2017-07-11T12:14:59.283Z,9820
2017-07-11T12:16:01.132Z,7528
2017-07-11T12:17:02.856Z,7516
2017-07-11T12:18:04.640Z,7424
2017-07-11T12:19:06.513Z,9324
2017-07-11T12:20:09.446Z,10836
2017-07-11T12:21:11.317Z,9896
2017-07-11T12:22:13.248Z,12112
2017-07-11T12:23:15.807Z,12112
2017-07-11T12:24:17.597Z,9844
2017-07-11T12:25:19.678Z,11016
2017-07-11T12:26:21.397Z,15440
2017-07-11T12:27:23.224Z,14048
2017-07-11T12:28:24.987Z,12624
2017-07-11T12:29:26.669Z,10288
2017-07-11T12:30:28.429Z,9296
2017-07-11T12:31:30.249Z,9204
2017-07-11T12:32:31.966Z,10952
2017-07-11T12:33:33.643Z,14236
2017-07-11T12:34:35.572Z,14196
2017-07-11T12:35:37.359Z,12200
2017-07-11T12:36:39.229Z,11876
2017-07-11T12:37:40.895Z,10060
2017-07-11T12:38:42.551Z,12632
2017-07-11T12:39:44.379Z,12144
2017-07-11T12:40:46.092Z,18912
2017-07-11T12:41:47.773Z,13308
2017-07-11T12:42:49.558Z,16568
2017-07-11T12:43:51.223Z,22976
2017-07-11T12:44:52.871Z,31232
2017-07-11T12:45:54.691Z,23040
2017-07-11T12:46:56.597Z,23712
2017-07-11T12:47:58.235Z,12724
2017-07-11T12:49:00.057Z,21024
2017-07-11T12:50:01.674Z,14812
2017-07-11T12:51:03.366Z,13048
2017-07-11T12:52:05.188Z,12112
2017-07-11T12:53:06.908Z,17888
2017-07-11T12:54:08.671Z,21632
2017-07-11T12:55:10.368Z,20096
2017-07-11T12:56:12.160Z,19808
2017-07-11T12:57:14.023Z,26912
2017-07-11T12:58:15.749Z,55136
2017-07-11T12:59:17.390Z,47040
2017-07-11T13:00:19.106Z,25056
2017-07-11T13:01:20.717Z,23552
2017-07-11T13:02:22.362Z,14984
2017-07-11T13:03:24.076Z,15140
2017-07-11T13:04:25.722Z,29344
2017-07-11T13:05:27.375Z,39680
2017-07-11T13:06:29.132Z,69600
2017-07-11T13:07:30.787Z,54336
2017-07-11T13:08:32.440Z,27296
2017-07-11T13:09:34.121Z,36416
2017-07-11T13:10:35.782Z,48704
2017-07-11T13:11:37.434Z,25696
2017-07-11T13:12:39.225Z,21568
2017-07-11T13:13:40.973Z,16232
2017-07-11T13:14:42.793Z,19840
2017-07-11T13:15:44.706Z,14484
2017-07-11T13:16:46.450Z,42528
2017-07-11T13:17:48.147Z,13244
2017-07-11T13:18:49.833Z,13004
2017-07-11T13:19:51.528Z,37408
2017-07-11T13:20:53.183Z,37088
2017-07-11T13:21:54.938Z,24640
2017-07-11T13:22:56.635Z,27136
2017-07-11T13:23:58.317Z,22240
2017-07-11T13:25:00.035Z,28480
2017-07-11T13:26:01.681Z,23904
2017-07-11T13:27:03.372Z,28928
2017-07-11T13:28:05.170Z,13436
2017-07-11T13:29:08.062Z,13084
2017-07-11T13:30:09.848Z,10640
2017-07-11T13:31:11.591Z,9364
2017-07-11T13:32:13.368Z,8664
2017-07-11T13:33:15.131Z,8464
2017-07-11T13:35:26.493Z,9632
2017-07-11T13:37:37.730Z,13264
2017-07-11T13:38:39.544Z,15384
2017-07-11T13:39:41.261Z,13692
2017-07-11T13:40:42.918Z,14728
2017-07-11T13:41:44.739Z,13796
2017-07-11T13:42:46.399Z,20288
2017-07-11T13:43:48.543Z,10292
2017-07-11T13:44:50.255Z,8912
2017-07-11T13:45:51.919Z,8612
2017-07-11T13:46:53.800Z,9004
2017-07-11T13:47:55.532Z,10100
2017-07-11T13:48:57.255Z,12496
2017-07-11T13:49:59.043Z,13120
2017-07-11T13:51:00.889Z,13940
2017-07-11T13:52:02.538Z,18848
2017-07-11T13:53:04.407Z,12680
2017-07-11T13:54:06.242Z,9340
2017-07-11T13:55:07.935Z,8824
2017-07-11T13:56:09.594Z,7004
2017-07-11T13:57:12.217Z,5748
2017-07-11T13:58:14.157Z,4172
2017-07-11T13:59:16.111Z,2656
2017-07-11T14:00:18.076Z,1972
2017-07-11T14:01:20.114Z,1676
2017-07-11T14:02:21.985Z,1564
2017-07-11T14:03:23.861Z,1388